Time;durP1;ratioP1;P1;durP2;ratioP2;P2;SDS_P1;SDS_P2;PMS_P1;PMS_P2;Temp;Humidity;BMP_temperature;BMP_pressure;BME280_temperature;BME280_humidity;BME280_pressure;Samples;Min_cycle;Max_cycle;Signal;HPM_P1;HPM_P2
2023/06/15 00:00:45;;;;;;;4.35;2.17;;;17.50;98.80;;;;;;5010012;28;20092;-56
2023/06/15 00:03:11;;;;;;;3.88;2.60;;;17.50;98.80;;;;;;5047835;28;20146;-56
2023/06/15 00:05:37;;;;;;;5.82;2.85;;;17.40;98.80;;;;;;5024049;28;20566;-56
2023/06/15 00:08:03;;;;;;;5.97;2.60;;;17.40;99.00;;;;;;5043754;28;20033;-55
2023/06/15 00:10:29;;;;;;;6.13;3.13;;;17.40;99.00;;;;;;5030894;28;20571;-55
2023/06/15 00:12:54;;;;;;;7.18;2.60;;;17.30;99.00;;;;;;5032442;28;20044;-55
2023/06/15 00:15:21;;;;;;;4.60;2.60;;;17.40;99.10;;;;;;5037756;28;20494;-56
2023/06/15 00:17:47;;;;;;;4.25;2.60;;;17.40;99.00;;;;;;5029090;28;20059;-55
2023/06/15 00:20:13;;;;;;;9.18;2.90;;;17.40;98.90;;;;;;5042841;28;20052;-56
2023/06/15 00:22:41;;;;;;;7.40;3.05;;;17.30;98.90;;;;;;5027943;28;20167;-56
2023/06/15 00:25:10;;;;;;;9.18;3.08;;;17.30;99.00;;;;;;5046715;28;20069;-54
2023/06/15 00:27:36;;;;;;;6.78;3.17;;;17.30;99.10;;;;;;5029875;28;20570;-55
2023/06/15 00:30:07;;;;;;;5.95;3.35;;;17.30;99.20;;;;;;5012022;28;20045;-56
2023/06/15 00:32:32;;;;;;;6.97;3.08;;;17.30;99.20;;;;;;5043041;28;20068;-56
2023/06/15 00:34:58;;;;;;;5.63;3.33;;;17.30;99.30;;;;;;5017335;28;20068;-56
2023/06/15 00:37:24;;;;;;;8.25;3.63;;;17.20;99.30;;;;;;5047930;28;20140;-53
2023/06/15 00:39:50;;;;;;;7.55;3.47;;;17.20;99.30;;;;;;5041927;28;20045;-55
2023/06/15 00:42:15;;;;;;;6.72;3.47;;;17.10;99.50;;;;;;5023135;28;20029;-56
2023/06/15 00:44:41;;;;;;;10.50;3.60;;;17.10;99.60;;;;;;5030542;28;20041;-55
2023/06/15 00:47:07;;;;;;;9.52;3.22;;;17.10;99.70;;;;;;5043287;28;20435;-55
2023/06/15 00:49:33;;;;;;;6.97;3.15;;;17.10;99.70;;;;;;5047038;28;20090;-54
2023/06/15 00:52:00;;;;;;;6.05;3.30;;;17.10;99.80;;;;;;5031876;28;20060;-56
2023/06/15 00:54:27;;;;;;;7.57;3.40;;;17.00;99.80;;;;;;5021335;28;20462;-55
2023/06/15 00:56:53;;;;;;;6.95;2.92;;;17.10;99.90;;;;;;5030331;28;20080;-52
2023/06/15 00:59:20;;;;;;;7.93;3.97;;;17.00;99.90;;;;;;5039084;28;20041;-56
2023/06/15 01:01:47;;;;;;;9.15;3.35;;;17.00;99.80;;;;;;5026096;28;20515;-55
2023/06/15 01:04:14;;;;;;;7.07;2.85;;;17.00;99.80;;;;;;5030647;28;20519;-55
2023/06/15 01:06:51;;;;;;;4.25;2.92;;;17.00;99.80;;;;;;5048638;28;20040;-55
2023/06/15 01:09:21;;;;;;;5.60;3.53;;;17.00;99.80;;;;;;5028321;28;20041;-55
2023/06/15 01:11:50;;;;;;;7.28;3.40;;;17.00;99.80;;;;;;5027479;28;20493;-55
2023/06/15 01:14:17;;;;;;;8.02;2.92;;;17.00;99.70;;;;;;5017217;28;20037;-56
2023/06/15 01:16:52;;;;;;;5.90;3.45;;;17.00;99.70;;;;;;5047471;28;20507;-55
2023/06/15 01:19:37;;;;;;;6.50;3.50;;;17.00;99.60;;;;;;5049360;28;20130;-56
2023/06/15 01:22:24;;;;;;;6.55;3.30;;;16.90;99.50;;;;;;5050356;28;20372;-56
2023/06/15 01:25:02;;;;;;;11.40;3.58;;;17.00;99.60;;;;;;5028648;28;20155;-56
2023/06/15 01:27:29;;;;;;;5.00;2.83;;;16.90;99.50;;;;;;5021990;28;20068;-53
2023/06/15 01:29:55;;;;;;;12.73;3.78;;;16.80;99.50;;;;;;5021715;28;20523;-55
2023/06/15 01:32:21;;;;;;;6.78;3.33;;;16.80;99.60;;;;;;5031250;28;20047;-55
2023/06/15 01:34:48;;;;;;;7.63;3.15;;;16.90;99.60;;;;;;5008227;28;20044;-54
2023/06/15 01:37:14;;;;;;;7.53;3.40;;;16.90;99.70;;;;;;5046620;28;20289;-55
2023/06/15 01:39:42;;;;;;;4.63;3.45;;;16.90;99.70;;;;;;5039832;28;20037;-55
2023/06/15 01:42:08;;;;;;;4.88;3.35;;;17.00;99.50;;;;;;5032677;28;20033;-56
2023/06/15 01:44:35;;;;;;;5.97;3.63;;;16.90;99.40;;;;;;5031913;28;20061;-55
2023/06/15 01:47:00;;;;;;;4.88;2.75;;;16.90;99.40;;;;;;5014131;28;20116;-56
2023/06/15 01:49:26;;;;;;;5.70;3.10;;;16.90;99.40;;;;;;5051028;28;20155;-55
2023/06/15 01:51:52;;;;;;;7.30;4.13;;;16.80;99.50;;;;;;5042455;28;20740;-55
2023/06/15 01:54:18;;;;;;;7.55;2.97;;;16.80;99.50;;;;;;5030838;28;20047;-54
2023/06/15 01:56:44;;;;;;;7.30;4.03;;;16.80;99.50;;;;;;5047504;28;20095;-53
2023/06/15 01:59:10;;;;;;;6.57;3.65;;;16.70;99.60;;;;;;5031781;28;20514;-56
2023/06/15 02:01:36;;;;;;;5.85;3.42;;;16.70;99.60;;;;;;5029440;28;20044;-55
2023/06/15 02:04:02;;;;;;;7.28;3.65;;;16.70;99.80;;;;;;5049713;28;20041;-55
2023/06/15 02:06:27;;;;;;;9.70;3.72;;;16.60;99.80;;;;;;5015529;28;20036;-54
2023/06/15 02:08:53;;;;;;;6.57;3.50;;;16.60;99.90;;;;;;5046975;28;20037;-52
2023/06/15 02:11:19;;;;;;;5.75;3.92;;;16.60;99.90;;;;;;5051052;28;20076;-53
2023/06/15 02:13:45;;;;;;;4.90;3.13;;;16.70;99.90;;;;;;5034555;28;20068;-53
2023/06/15 02:16:12;;;;;;;9.02;3.95;;;16.60;99.90;;;;;;5013616;28;20053;-52
2023/06/15 02:18:38;;;;;;;5.97;3.90;;;16.60;99.90;;;;;;5048460;28;20751;-55
2023/06/15 02:21:04;;;;;;;4.85;2.97;;;16.60;99.90;;;;;;5036623;28;20088;-56
2023/06/15 02:23:32;;;;;;;8.10;4.00;;;16.50;99.90;;;;;;5029269;28;20122;-54
2023/06/15 02:25:59;;;;;;;5.45;3.25;;;16.40;99.90;;;;;;5032896;28;20048;-55
2023/06/15 02:28:24;;;;;;;9.02;3.95;;;16.40;99.90;;;;;;5047204;28;20041;-51
2023/06/15 02:30:50;;;;;;;7.57;3.60;;;16.40;99.90;;;;;;5030337;28;20052;-54
2023/06/15 02:33:16;;;;;;;6.78;3.55;;;16.40;99.90;;;;;;5057483;22;20132;-60
2023/06/15 02:35:41;;;;;;;7.93;3.53;;;16.30;99.90;;;;;;5046961;28;20033;-60
2023/06/15 02:38:07;;;;;;;8.38;4.00;;;16.30;99.90;;;;;;5032549;28;20079;-60
2023/06/15 02:40:33;;;;;;;6.22;3.67;;;16.30;99.90;;;;;;5048263;28;20041;-59
2023/06/15 02:42:59;;;;;;;5.18;3.63;;;16.30;99.90;;;;;;5045181;28;20064;-59
2023/06/15 02:45:25;;;;;;;5.40;2.88;;;16.30;99.90;;;;;;5036075;28;20037;-59
2023/06/15 02:47:51;;;;;;;8.23;3.70;;;16.30;99.90;;;;;;5045356;28;20056;-58
2023/06/15 02:50:17;;;;;;;8.55;3.25;;;16.30;99.90;;;;;;5050928;28;20040;-60
2023/06/15 02:52:45;;;;;;;8.88;4.15;;;16.30;99.90;;;;;;5046852;28;20105;-60
2023/06/15 02:55:13;;;;;;;7.45;3.65;;;16.30;99.90;;;;;;5026883;28;20048;-60
2023/06/15 02:57:38;;;;;;;6.40;4.07;;;16.30;99.90;;;;;;5045223;28;20068;-59
2023/06/15 03:00:05;;;;;;;8.15;4.40;;;16.30;99.90;;;;;;5040063;28;20581;-58
2023/06/15 03:02:31;;;;;;;5.55;4.03;;;16.30;99.90;;;;;;5063666;28;20036;-60
2023/06/15 03:04:57;;;;;;;7.03;3.88;;;16.30;99.90;;;;;;5031975;28;20403;-60
2023/06/15 03:07:23;;;;;;;9.57;4.63;;;16.20;99.90;;;;;;5047037;28;20044;-59
2023/06/15 03:09:51;;;;;;;6.72;3.47;;;16.20;99.90;;;;;;5011160;28;20033;-60
2023/06/15 03:12:17;;;;;;;9.20;3.67;;;16.20;99.90;;;;;;5022522;28;20044;-60
2023/06/15 03:14:44;;;;;;;8.23;4.07;;;16.20;99.90;;;;;;5045669;28;20056;-59
2023/06/15 03:17:12;;;;;;;7.97;4.07;;;16.10;99.90;;;;;;5044359;28;20521;-59
2023/06/15 03:19:43;;;;;;;9.30;4.07;;;16.10;99.90;;;;;;5045877;28;20044;-60
2023/06/15 03:22:10;;;;;;;8.15;3.75;;;16.20;99.90;;;;;;5053206;28;20414;-60
2023/06/15 03:24:36;;;;;;;4.68;3.33;;;16.20;99.90;;;;;;5027411;28;20037;-58
2023/06/15 03:27:04;;;;;;;10.77;4.40;;;16.20;99.90;;;;;;5049551;28;20102;-60
2023/06/15 03:29:36;;;;;;;10.57;4.85;;;16.10;99.90;;;;;;5044054;28;20041;-59
2023/06/15 03:32:06;;;;;;;7.53;4.00;;;16.10;99.90;;;;;;4996520;28;1328930;-59
2023/06/15 03:34:31;;;;;;;8.75;4.55;;;16.10;99.90;;;;;;5050077;28;20067;-60
2023/06/15 03:36:57;;;;;;;8.25;4.75;;;16.10;99.90;;;;;;5027381;28;20032;-60
2023/06/15 03:39:23;;;;;;;8.18;4.47;;;16.10;99.90;;;;;;5031865;28;20032;-60
2023/06/15 03:41:49;;;;;;;12.35;4.57;;;16.10;99.90;;;;;;5064930;28;20032;-60
2023/06/15 03:44:15;;;;;;;9.55;4.65;;;16.10;99.90;;;;;;5049470;28;20041;-59
2023/06/15 03:46:44;;;;;;;7.30;4.22;;;16.00;99.90;;;;;;5047991;28;20063;-60
2023/06/15 03:49:10;;;;;;;7.25;4.90;;;16.00;99.90;;;;;;5045302;28;20124;-60
2023/06/15 03:51:37;;;;;;;11.18;4.93;;;16.00;99.90;;;;;;5041219;28;20194;-60
2023/06/15 03:54:03;;;;;;;5.50;4.35;;;16.00;99.90;;;;;;5052024;28;20086;-59
2023/06/15 03:56:29;;;;;;;6.63;4.53;;;16.00;99.90;;;;;;5040438;28;20353;-59
2023/06/15 03:58:55;;;;;;;8.80;5.30;;;16.10;99.90;;;;;;5045433;28;20066;-60
2023/06/15 04:01:22;;;;;;;8.32;4.30;;;16.10;99.90;;;;;;5029690;28;20119;-60
2023/06/15 04:03:48;;;;;;;8.18;4.60;;;16.10;99.90;;;;;;5032549;28;20420;-60
2023/06/15 04:06:15;;;;;;;9.30;4.90;;;16.10;99.90;;;;;;5046448;28;20065;-58
2023/06/15 04:08:41;;;;;;;6.75;3.90;;;16.10;99.90;;;;;;5042805;28;20091;-60
2023/06/15 04:11:07;;;;;;;7.03;4.10;;;16.20;99.90;;;;;;5050896;28;20399;-60
2023/06/15 04:13:32;;;;;;;9.23;5.03;;;16.20;99.90;;;;;;5061128;28;20044;-60
2023/06/15 04:15:58;;;;;;;7.00;4.82;;;16.20;99.90;;;;;;5033065;28;20044;-60
2023/06/15 04:18:24;;;;;;;8.15;4.10;;;16.20;99.90;;;;;;5046757;28;20051;-60
2023/06/15 04:20:50;;;;;;;6.28;4.15;;;16.20;99.90;;;;;;5048295;28;20102;-59
2023/06/15 04:23:16;;;;;;;6.90;4.70;;;16.20;99.90;;;;;;5045548;28;20048;-60
2023/06/15 04:25:41;;;;;;;12.02;4.32;;;16.20;99.90;;;;;;5053925;28;20136;-60
2023/06/15 04:28:10;;;;;;;6.35;4.70;;;16.30;99.90;;;;;;5033530;28;20561;-60
2023/06/15 04:30:40;;;;;;;6.22;3.97;;;16.30;99.90;;;;;;5063998;28;20094;-60
2023/06/15 04:33:12;;;;;;;9.32;4.88;;;16.30;99.90;;;;;;5044474;28;20120;-59
2023/06/15 04:35:40;;;;;;;7.80;4.63;;;16.30;99.90;;;;;;5063521;28;20108;-59
2023/06/15 04:38:05;;;;;;;7.82;4.95;;;16.40;99.90;;;;;;5041658;28;20041;-60
2023/06/15 04:40:32;;;;;;;9.68;4.43;;;16.40;99.90;;;;;;5044094;28;20321;-60
2023/06/15 04:42:58;;;;;;;7.50;5.15;;;16.40;99.90;;;;;;5057397;28;20040;-58
2023/06/15 04:45:24;;;;;;;6.47;4.65;;;16.50;99.90;;;;;;5049767;28;20102;-60
2023/06/15 04:47:50;;;;;;;4.72;3.47;;;16.50;99.90;;;;;;5043438;28;20322;-60
2023/06/15 04:50:16;;;;;;;5.75;3.83;;;16.60;99.90;;;;;;5037999;28;20531;-60
2023/06/15 04:52:42;;;;;;;6.95;4.65;;;16.60;99.90;;;;;;5047479;28;20131;-60
2023/06/15 04:55:08;;;;;;;8.77;5.18;;;16.60;99.90;;;;;;5046719;28;20056;-59
2023/06/15 04:57:34;;;;;;;9.95;5.68;;;16.70;99.90;;;;;;5045069;28;20456;-59
2023/06/15 05:00:00;;;;;;;8.02;4.78;;;16.80;99.90;;;;;;5049448;28;20470;-60
2023/06/15 05:02:26;;;;;;;7.10;4.20;;;16.80;99.90;;;;;;5048972;28;20087;-60
2023/06/15 05:04:52;;;;;;;6.93;4.65;;;16.80;99.90;;;;;;5063569;28;20051;-59
2023/06/15 05:07:18;;;;;;;10.80;5.03;;;16.80;99.90;;;;;;5027248;28;20072;-60
2023/06/15 05:09:43;;;;;;;6.68;4.38;;;16.90;99.90;;;;;;5065021;28;20067;-60
2023/06/15 05:12:09;;;;;;;12.50;5.00;;;16.90;99.90;;;;;;5044312;28;20544;-59
2023/06/15 05:14:35;;;;;;;7.80;4.57;;;17.00;99.90;;;;;;5047180;28;20045;-60
2023/06/15 05:17:04;;;;;;;6.95;4.50;;;17.10;99.90;;;;;;5030937;28;20500;-60
2023/06/15 05:19:30;;;;;;;7.85;4.35;;;17.20;99.90;;;;;;5042974;28;20051;-60
2023/06/15 05:22:02;;;;;;;10.30;5.07;;;17.20;99.90;;;;;;5045413;28;20135;-60
2023/06/15 05:24:28;;;;;;;7.35;4.28;;;17.30;99.90;;;;;;5051812;28;20427;-60
2023/06/15 05:26:54;;;;;;;8.98;4.18;;;17.40;99.90;;;;;;5054676;28;20051;-60
2023/06/15 05:29:20;;;;;;;11.48;4.93;;;17.50;99.90;;;;;;5069102;28;20227;-60
2023/06/15 05:31:46;;;;;;;8.02;5.00;;;17.50;99.90;;;;;;5046326;28;20554;-59
2023/06/15 05:34:12;;;;;;;10.07;4.80;;;17.60;99.90;;;;;;5045513;28;20043;-59
2023/06/15 05:36:38;;;;;;;9.20;5.00;;;17.60;99.90;;;;;;5050933;28;20036;-59
2023/06/15 05:39:04;;;;;;;7.65;4.75;;;17.70;99.90;;;;;;5039688;28;20060;-59
2023/06/15 05:41:30;;;;;;;10.27;4.63;;;17.80;99.90;;;;;;5045692;28;20039;-59
2023/06/15 05:43:57;;;;;;;7.00;4.05;;;17.80;99.90;;;;;;5044530;28;20557;-59
2023/06/15 05:46:23;;;;;;;9.52;5.20;;;17.90;99.90;;;;;;5027124;28;20044;-58
2023/06/15 05:48:49;;;;;;;7.45;5.88;;;18.00;99.90;;;;;;5042315;28;20041;-59
2023/06/15 05:51:15;;;;;;;9.40;4.68;;;18.10;99.90;;;;;;5031700;28;20040;-59
2023/06/15 05:53:40;;;;;;;8.57;4.75;;;18.20;99.90;;;;;;5047406;28;20492;-59
2023/06/15 05:56:06;;;;;;;6.85;4.38;;;18.20;99.90;;;;;;5034003;28;20048;-59
2023/06/15 05:58:32;;;;;;;10.35;4.47;;;18.30;99.90;;;;;;5042530;28;20067;-59
2023/06/15 06:00:58;;;;;;;13.38;4.30;;;18.30;99.90;;;;;;5040225;28;20131;-59
2023/06/15 06:03:24;;;;;;;7.47;4.10;;;18.50;99.90;;;;;;5039469;28;20063;-60
2023/06/15 06:05:50;;;;;;;8.82;4.97;;;18.50;99.90;;;;;;5027017;28;20029;-59
2023/06/15 06:08:17;;;;;;;6.22;4.60;;;18.60;99.90;;;;;;5043234;28;20174;-60
2023/06/15 06:10:42;;;;;;;9.45;4.57;;;18.70;99.90;;;;;;5045949;28;20056;-61
2023/06/15 06:13:08;;;;;;;9.40;4.32;;;18.80;99.90;;;;;;5048323;28;20157;-60
2023/06/15 06:15:34;;;;;;;8.73;4.32;;;18.90;99.90;;;;;;5038259;28;20527;-59
2023/06/15 06:18:01;;;;;;;7.25;4.75;;;19.00;99.90;;;;;;5038421;28;20043;-58
2023/06/15 06:20:27;;;;;;;9.07;4.32;;;19.10;99.90;;;;;;5039804;28;20040;-59
2023/06/15 06:22:52;;;;;;;5.78;3.45;;;19.10;99.90;;;;;;5025466;28;20399;-59
2023/06/15 06:25:18;;;;;;;8.43;4.03;;;19.10;99.90;;;;;;5040916;28;20080;-59
2023/06/15 06:27:44;;;;;;;8.13;3.70;;;19.20;99.80;;;;;;5023837;28;20040;-59
2023/06/15 06:30:10;;;;;;;7.45;3.85;;;19.30;99.70;;;;;;5028985;28;20093;-59
2023/06/15 06:32:36;;;;;;;5.22;2.97;;;19.30;99.70;;;;;;5035745;28;20487;-59
2023/06/15 06:35:03;;;;;;;8.32;3.78;;;19.40;99.80;;;;;;5045749;28;20121;-58
2023/06/15 06:37:29;;;;;;;11.82;3.50;;;19.50;99.60;;;;;;5030640;28;20040;-59
2023/06/15 06:39:55;;;;;;;5.15;3.42;;;19.60;99.50;;;;;;5044106;28;20041;-59
2023/06/15 06:42:21;;;;;;;7.57;3.17;;;19.70;99.20;;;;;;5062058;28;20422;-60
2023/06/15 06:44:46;;;;;;;6.78;3.72;;;19.80;98.70;;;;;;5048092;28;20043;-59
2023/06/15 06:47:12;;;;;;;5.95;3.42;;;19.90;98.10;;;;;;5045409;28;20553;-59
2023/06/15 06:49:38;;;;;;;7.28;3.30;;;20.00;97.50;;;;;;5049412;28;20040;-59
2023/06/15 06:52:05;;;;;;;9.30;3.50;;;20.00;96.80;;;;;;5041829;28;20040;-59
2023/06/15 06:54:30;;;;;;;8.98;3.50;;;20.00;96.80;;;;;;5046237;28;20113;-59
2023/06/15 06:56:56;;;;;;;5.20;3.17;;;20.10;96.60;;;;;;5028067;28;20487;-59
2023/06/15 06:59:22;;;;;;;6.78;3.55;;;20.20;96.80;;;;;;5046409;28;20041;-59
2023/06/15 07:01:47;;;;;;;7.22;3.78;;;20.30;97.00;;;;;;5046434;28;20037;-59
2023/06/15 07:04:13;;;;;;;4.88;3.53;;;20.40;96.70;;;;;;5045770;28;20041;-59
2023/06/15 07:06:39;;;;;;;12.02;3.85;;;20.40;96.60;;;;;;5049030;28;20101;-59
2023/06/15 07:09:05;;;;;;;12.18;4.13;;;20.50;96.20;;;;;;5043227;28;20055;-59
2023/06/15 07:11:30;;;;;;;8.07;2.88;;;20.60;96.10;;;;;;5046187;28;20471;-59
2023/06/15 07:13:57;;;;;;;7.68;3.47;;;20.70;96.00;;;;;;5051701;28;20041;-59
2023/06/15 07:16:23;;;;;;;5.05;2.88;;;20.80;95.50;;;;;;5025781;28;20056;-60
2023/06/15 07:18:48;;;;;;;6.30;3.20;;;21.00;95.20;;;;;;5043960;28;20419;-59
2023/06/15 07:21:14;;;;;;;14.07;3.38;;;21.10;94.60;;;;;;5028344;28;20048;-60
2023/06/15 07:23:40;;;;;;;7.15;3.47;;;21.20;93.90;;;;;;5041389;28;20041;-59
2023/06/15 07:26:06;;;;;;;5.40;3.25;;;21.20;93.60;;;;;;5046578;28;20047;-60
2023/06/15 07:28:31;;;;;;;6.85;2.97;;;21.30;92.90;;;;;;5016933;28;20102;-59
2023/06/15 07:30:57;;;;;;;10.32;2.95;;;21.30;93.20;;;;;;5038972;28;20479;-60
2023/06/15 07:33:23;;;;;;;5.72;2.85;;;21.50;92.80;;;;;;5047804;28;20040;-59
2023/06/15 07:35:49;;;;;;;6.03;2.85;;;21.60;92.70;;;;;;5028588;28;20037;-59
2023/06/15 07:38:14;;;;;;;5.15;2.90;;;21.70;92.80;;;;;;5047129;28;20361;-60
2023/06/15 07:40:41;;;;;;;4.72;3.13;;;21.80;92.50;;;;;;5047452;28;20043;-59
2023/06/15 07:43:06;;;;;;;4.95;2.88;;;21.80;91.60;;;;;;5062895;28;20045;-60
2023/06/15 07:45:32;;;;;;;7.65;2.80;;;21.80;91.70;;;;;;5047865;28;20384;-59
2023/06/15 07:47:58;;;;;;;9.68;3.75;;;21.80;91.00;;;;;;5014100;28;20480;-60
2023/06/15 07:50:26;;;;;;;7.45;2.90;;;21.90;91.20;;;;;;5046891;28;20098;-59
2023/06/15 07:52:51;;;;;;;5.75;3.28;;;21.90;90.70;;;;;;5046404;28;20419;-60
2023/06/15 07:55:17;;;;;;;4.20;2.42;;;22.10;90.90;;;;;;5045981;28;20051;-59
2023/06/15 07:57:43;;;;;;;6.38;3.15;;;22.20;90.70;;;;;;5043452;28;20044;-60
2023/06/15 08:00:10;;;;;;;6.25;2.88;;;22.30;90.00;;;;;;5041585;28;20191;-60
2023/06/15 08:02:36;;;;;;;7.10;3.20;;;22.40;88.70;;;;;;5023983;28;20443;-60
2023/06/15 08:05:02;;;;;;;7.95;2.80;;;22.40;88.30;;;;;;5026680;28;20041;-60
2023/06/15 08:07:28;;;;;;;5.88;3.10;;;22.50;88.30;;;;;;5046582;28;20094;-60
2023/06/15 08:09:54;;;;;;;9.88;2.72;;;22.60;88.20;;;;;;5025149;28;20052;-60
2023/06/15 08:12:21;;;;;;;5.72;2.75;;;22.60;86.00;;;;;;5040556;28;20174;-60
2023/06/15 08:14:47;;;;;;;10.02;3.22;;;22.70;87.30;;;;;;5046714;28;20137;-59
2023/06/15 08:17:13;;;;;;;6.60;2.88;;;22.80;86.50;;;;;;5039426;28;20783;-60
2023/06/15 08:20:21;;;;;;;5.82;2.80;;;22.80;85.40;;;;;;5038438;28;20045;-60
2023/06/15 08:22:46;;;;;;;6.75;3.60;;;22.90;86.20;;;;;;5056435;28;20638;-60
2023/06/15 08:25:12;;;;;;;6.80;3.30;;;23.00;85.80;;;;;;5042063;28;20044;-60
2023/06/15 08:27:38;;;;;;;6.35;2.63;;;23.10;85.80;;;;;;5025587;28;20028;-60
2023/06/15 08:30:05;;;;;;;9.20;3.17;;;23.30;84.70;;;;;;5040980;28;20048;-60
2023/06/15 08:32:30;;;;;;;10.23;3.45;;;23.40;84.70;;;;;;5028006;28;20044;-61
2023/06/15 08:34:56;;;;;;;5.07;2.53;;;23.40;83.00;;;;;;5042951;28;20056;-61
2023/06/15 08:37:22;;;;;;;6.40;3.13;;;23.50;83.60;;;;;;5044506;28;20052;-61
2023/06/15 08:39:47;;;;;;;9.18;3.20;;;23.60;83.20;;;;;;5055969;28;20312;-60
2023/06/15 08:42:17;;;;;;;4.40;2.55;;;23.70;83.60;;;;;;5039097;28;20095;-60
2023/06/15 08:44:46;;;;;;;6.82;3.38;;;23.80;82.40;;;;;;5028859;28;20468;-60
2023/06/15 08:47:12;;;;;;;6.38;2.90;;;23.90;82.00;;;;;;5037603;28;20517;-59
2023/06/15 08:49:39;;;;;;;5.40;2.40;;;24.00;80.50;;;;;;5040992;28;20044;-60
2023/06/15 08:52:08;;;;;;;7.68;2.72;;;24.10;80.00;;;;;;5051838;28;20497;-60
2023/06/15 08:54:35;;;;;;;5.15;3.20;;;24.10;79.00;;;;;;5024965;28;20045;-61
2023/06/15 08:57:01;;;;;;;6.68;3.10;;;24.10;79.40;;;;;;5027676;28;20567;-61
2023/06/15 08:59:30;;;;;;;6.13;3.17;;;24.10;79.70;;;;;;5042245;28;20051;-59
2023/06/15 09:01:59;;;;;;;5.75;3.10;;;24.20;78.60;;;;;;5044879;28;20337;-60
2023/06/15 09:04:26;;;;;;;6.15;2.63;;;24.20;78.00;;;;;;5043586;28;20045;-60
2023/06/15 09:06:52;;;;;;;6.13;2.83;;;24.30;77.70;;;;;;5018845;28;20341;-60
2023/06/15 09:09:17;;;;;;;3.85;2.50;;;24.40;77.70;;;;;;5043222;28;20071;-59
2023/06/15 09:11:46;;;;;;;6.63;2.90;;;24.40;77.50;;;;;;5054740;28;20036;-60
2023/06/15 09:14:12;;;;;;;6.40;2.83;;;24.60;77.90;;;;;;5041444;28;20195;-58
2023/06/15 09:16:39;;;;;;;7.32;2.70;;;24.70;77.20;;;;;;5042514;28;20107;-60
2023/06/15 09:19:16;;;;;;;7.57;2.95;;;24.70;75.70;;;;;;5045143;28;20596;-59
2023/06/15 09:21:47;;;;;;;6.30;3.10;;;24.80;76.60;;;;;;5039310;28;20065;-60
2023/06/15 09:24:16;;;;;;;6.90;2.75;;;24.90;75.00;;;;;;5040781;28;20501;-60
2023/06/15 09:26:44;;;;;;;4.43;2.92;;;24.90;75.00;;;;;;5043470;28;20049;-60
2023/06/15 09:29:13;;;;;;;7.13;2.85;;;25.00;74.10;;;;;;5044288;28;20569;-60
2023/06/15 09:31:41;;;;;;;4.88;2.67;;;25.00;74.10;;;;;;5038338;28;20400;-61
2023/06/15 09:34:07;;;;;;;5.45;2.97;;;24.90;74.20;;;;;;5045779;28;20410;-60
2023/06/15 09:36:39;;;;;;;5.18;2.53;;;25.00;73.60;;;;;;5040034;28;20086;-60
2023/06/15 09:39:09;;;;;;;7.53;2.90;;;25.10;73.80;;;;;;5042411;28;20048;-59
2023/06/15 09:41:49;;;;;;;5.75;2.42;;;25.20;73.60;;;;;;5064805;28;20403;-61
2023/06/15 09:44:15;;;;;;;5.90;2.90;;;25.30;72.70;;;;;;5032208;28;20041;-60
2023/06/15 09:46:41;;;;;;;6.40;3.08;;;25.40;70.80;;;;;;5064348;28;20441;-61
2023/06/15 09:49:25;;;;;;;8.65;2.85;;;25.30;70.50;;;;;;5040339;28;20041;-60
2023/06/15 09:51:52;;;;;;;4.25;2.45;;;25.40;69.60;;;;;;5045962;28;20040;-60
2023/06/15 09:54:22;;;;;;;4.75;2.55;;;25.50;70.40;;;;;;5048708;28;20313;-60
2023/06/15 09:56:50;;;;;;;5.20;2.42;;;25.60;71.30;;;;;;5045452;28;20043;-61
2023/06/15 09:59:17;;;;;;;5.03;2.95;;;25.80;69.70;;;;;;5046226;28;20049;-59
2023/06/15 10:01:48;;;;;;;6.85;2.45;;;25.80;69.70;;;;;;5044505;28;20091;-61
2023/06/15 10:04:16;;;;;;;5.82;2.20;;;25.70;70.40;;;;;;5047618;28;20041;-60
2023/06/15 10:06:45;;;;;;;3.20;2.25;;;25.80;69.20;;;;;;5044947;28;20178;-60
2023/06/15 10:09:15;;;;;;;5.85;2.75;;;25.80;67.70;;;;;;5053044;28;20218;-61
2023/06/15 10:11:43;;;;;;;6.88;2.60;;;25.90;69.20;;;;;;5054922;28;20131;-60
2023/06/15 10:14:29;;;;;;;5.38;2.63;;;25.90;67.30;;;;;;5048813;28;20056;-59
2023/06/15 10:17:02;;;;;;;5.15;2.42;;;26.00;66.20;;;;;;5035550;28;20048;-58
2023/06/15 10:19:31;;;;;;;5.05;2.40;;;26.10;68.40;;;;;;5045444;28;20041;-61
2023/06/15 10:21:57;;;;;;;3.72;2.75;;;26.30;68.80;;;;;;5063593;28;20044;-60
2023/06/15 10:24:25;;;;;;;3.97;2.42;;;26.40;68.40;;;;;;5044382;28;20490;-61
2023/06/15 10:26:51;;;;;;;5.07;2.53;;;26.50;66.80;;;;;;5040214;28;20032;-61
2023/06/15 10:29:31;;;;;;;3.92;2.70;;;26.60;66.50;;;;;;5045172;28;20043;-59
2023/06/15 10:32:18;;;;;;;6.03;2.35;;;26.80;65.50;;;;;;5039367;28;20040;-57
2023/06/15 10:34:50;;;;;;;3.10;2.50;;;26.80;65.80;;;;;;5042243;28;20093;-62
2023/06/15 10:37:30;;;;;;;4.47;2.58;;;26.70;65.40;;;;;;5052564;28;20183;-60
2023/06/15 10:40:05;;;;;;;6.50;2.38;;;26.70;65.10;;;;;;5045190;28;20440;-61
2023/06/15 10:42:43;;;;;;;3.53;2.45;;;26.80;63.80;;;;;;5048148;28;20067;-59
2023/06/15 10:45:32;;;;;;;5.53;2.50;;;26.80;63.70;;;;;;5028411;28;20056;-60
2023/06/15 10:48:01;;;;;;;5.95;2.60;;;26.90;64.80;;;;;;5046764;28;20127;-61
2023/06/15 10:50:48;;;;;;;4.78;2.60;;;26.80;63.90;;;;;;5050517;28;20662;-60
2023/06/15 10:53:27;;;;;;;5.45;2.17;;;26.90;61.30;;;;;;5067359;28;20052;-61
2023/06/15 10:55:57;;;;;;;5.82;3.30;;;26.80;62.00;;;;;;5031014;28;20044;-60
2023/06/15 10:58:27;;;;;;;4.53;2.85;;;26.60;59.80;;;;;;5025148;28;20142;-60
2023/06/15 11:01:26;;;;;;;6.88;2.50;;;26.50;62.50;;;;;;5020189;28;20392;-60
2023/06/15 11:03:56;;;;;;;4.60;2.50;;;26.90;63.50;;;;;;4999619;28;20099;-61
2023/06/15 11:06:32;;;;;;;4.63;2.42;;;27.20;63.20;;;;;;5042265;28;20701;-61
2023/06/15 11:09:09;;;;;;;4.20;2.50;;;27.20;63.80;;;;;;5045991;28;20048;-61
2023/06/15 11:11:37;;;;;;;6.05;2.83;;;27.40;63.30;;;;;;5046832;28;20067;-61
2023/06/15 11:14:19;;;;;;;2.90;2.20;;;27.20;62.30;;;;;;5030533;28;20120;-61
2023/06/15 11:16:46;;;;;;;4.47;2.30;;;27.20;63.20;;;;;;5048333;28;20044;-61
2023/06/15 11:19:11;;;;;;;4.78;2.65;;;27.20;63.50;;;;;;5044894;28;20063;-59
2023/06/15 11:21:40;;;;;;;3.13;2.30;;;27.00;60.10;;;;;;5038481;28;20045;-59
2023/06/15 11:24:07;;;;;;;3.85;2.20;;;27.20;62.30;;;;;;5065961;28;20033;-60
2023/06/15 11:26:38;;;;;;;5.82;2.92;;;27.40;61.90;;;;;;5040435;28;20145;-61
2023/06/15 11:29:07;;;;;;;3.47;2.28;;;27.50;61.10;;;;;;5030981;28;20041;-61
2023/06/15 11:31:34;;;;;;;4.47;2.25;;;27.60;62.10;;;;;;5043150;28;20770;-60
2023/06/15 11:34:01;;;;;;;4.22;2.42;;;27.70;62.00;;;;;;5045703;28;20032;-59
2023/06/15 11:36:26;;;;;;;6.07;2.35;;;27.80;62.10;;;;;;5044586;28;20083;-60
2023/06/15 11:38:53;;;;;;;7.40;2.40;;;27.90;60.80;;;;;;5026088;28;20060;-59
2023/06/15 11:41:22;;;;;;;4.97;2.33;;;28.10;61.70;;;;;;5048321;28;20135;-61
2023/06/15 11:43:49;;;;;;;4.07;2.30;;;28.10;60.00;;;;;;5031073;28;20079;-60
2023/06/15 11:46:18;;;;;;;4.13;2.22;;;28.00;60.00;;;;;;5020051;28;20040;-59
2023/06/15 11:48:44;;;;;;;6.15;2.50;;;28.00;59.50;;;;;;5066955;28;20490;-60
2023/06/15 11:51:11;;;;;;;6.45;2.65;;;28.00;59.90;;;;;;5025446;28;20045;-61
2023/06/15 11:53:39;;;;;;;5.50;2.58;;;28.00;58.30;;;;;;5045420;28;20048;-60
2023/06/15 11:56:12;;;;;;;4.45;2.30;;;28.00;58.40;;;;;;5047809;28;20090;-59
2023/06/15 11:58:46;;;;;;;4.95;2.53;;;28.10;59.30;;;;;;5031084;28;20060;-59
2023/06/15 12:01:14;;;;;;;7.93;2.60;;;28.30;59.90;;;;;;5025895;28;20042;-61
2023/06/15 12:03:47;;;;;;;4.53;2.40;;;28.40;59.10;;;;;;5043011;28;20039;-60
2023/06/15 12:06:18;;;;;;;3.10;2.60;;;28.30;59.30;;;;;;5052561;28;20141;-61
2023/06/15 12:08:45;;;;;;;5.75;2.83;;;28.20;57.70;;;;;;5027473;28;20079;-59
2023/06/15 12:11:12;;;;;;;4.95;2.50;;;28.20;58.30;;;;;;5027977;28;20044;-61
2023/06/15 12:13:39;;;;;;;4.43;2.25;;;28.10;57.90;;;;;;5044873;28;20036;-59
2023/06/15 12:16:05;;;;;;;4.47;2.80;;;28.10;59.00;;;;;;5045083;28;20423;-58
2023/06/15 12:18:31;;;;;;;4.88;2.70;;;28.30;57.50;;;;;;5043833;28;20153;-60
2023/06/15 12:21:00;;;;;;;3.53;2.67;;;28.40;57.00;;;;;;5048091;28;20418;-60
2023/06/15 12:23:32;;;;;;;6.65;2.90;;;28.50;57.10;;;;;;5047223;28;20306;-58
2023/06/15 12:26:00;;;;;;;3.42;2.80;;;28.20;56.70;;;;;;5064997;28;21110;-58
2023/06/15 12:28:26;;;;;;;6.18;2.35;;;27.80;56.90;;;;;;5041459;28;20040;-60
2023/06/15 12:31:10;;;;;;;4.60;2.40;;;27.80;57.40;;;;;;5061827;28;20056;-60
2023/06/15 12:33:38;;;;;;;5.75;2.33;;;28.00;56.20;;;;;;5030261;28;20048;-59
2023/06/15 12:36:14;;;;;;;4.07;2.17;;;28.20;58.10;;;;;;5051324;28;20321;-60
2023/06/15 12:38:42;;;;;;;4.18;2.63;;;28.40;55.80;;;;;;5045596;28;20190;-58
2023/06/15 12:41:15;;;;;;;3.97;2.30;;;28.60;56.70;;;;;;5043581;28;20075;-61
2023/06/15 12:43:41;;;;;;;3.15;2.40;;;28.60;55.30;;;;;;5042310;28;20044;-61
2023/06/15 12:46:08;;;;;;;3.45;2.35;;;28.60;54.50;;;;;;5046669;28;20044;-59
2023/06/15 12:48:34;;;;;;;4.50;2.60;;;28.70;55.30;;;;;;5048639;28;20052;-59